KEHA

Elkhart-Morton County Airport

Elkhart, Kansas, USA
METAR KEHA 220955Z AUTO 17004KT 10SM CLR 18/13 A2998 RMK AO2 T01750125
Observed Flight Rules
May-22 @ 09:55 UTC (22 minutes ago) Visual Flight Rules
Wind Visibility Clouds
170° at 4 knots 10 miles
  • Clear skies
Temperatures Readings
Current 18°C / 64°F
Dewpoint 13°C / 55°F
Humidity 73%
Altimeter 29.98" Hg
Pressure 1015 hPa
Elevation 1099
METAR KEHA 220955Z AUTO 17004KT 10SM CLR 18/13 A2998 RMK AO2 T01750125
Observed Flight Rules
May-22 @ 09:55 UTC
(22 minutes ago)
VFR
Wind Visibility
170° at 4 knots 10 miles
Clouds
  • Clear skies
Temperature Dewpoint
18°C / 64°F 13°C / 55°F
Humidity Altimeter Pressure
73% 29.98" Hg 1015 hPa